Time;durP1;ratioP1;P1;durP2;ratioP2;P2;SDS_P1;SDS_P2;PMS_P1;PMS_P2;Temp;Humidity;BMP_temperature;BMP_pressure;BME280_temperature;BME280_humidity;BME280_pressure;Samples;Min_cycle;Max_cycle;Signal;HPM_P1;HPM_P2
2021/10/13 00:00:15;;;;;;;4.40;4.00;;;;;;;;;;4986133;28;20716;-41
2021/10/13 00:02:40;;;;;;;4.90;4.28;;;;;;;;;;4987340;28;20030;-48
2021/10/13 00:05:06;;;;;;;3.90;3.53;;;;;;;;;;4990619;28;20188;-46
2021/10/13 00:07:32;;;;;;;8.10;4.63;;;;;;;;;;4991875;28;20309;-43
2021/10/13 00:09:57;;;;;;;7.45;3.63;;;;;;;;;;4990308;28;20143;-42
2021/10/13 00:12:23;;;;;;;5.20;3.33;;;;;;;;;;4988680;28;20374;-42
2021/10/13 00:14:48;;;;;;;8.55;5.20;;;;;;;;;;4985693;28;20031;-41
2021/10/13 00:17:13;;;;;;;5.57;4.65;;;;;;;;;;4989309;28;20096;-44
2021/10/13 00:19:39;;;;;;;4.70;4.25;;;;;;;;;;4991728;28;20018;-42
2021/10/13 00:22:04;;;;;;;4.82;4.22;;;;;;;;;;4989404;28;20638;-40
2021/10/13 00:24:29;;;;;;;5.50;4.25;;;;;;;;;;4990759;28;20034;-41
2021/10/13 00:26:55;;;;;;;4.90;3.33;;;;;;;;;;4990916;28;20111;-45
2021/10/13 00:29:21;;;;;;;4.20;3.45;;;;;;;;;;4990010;28;20111;-45
2021/10/13 00:31:46;;;;;;;13.32;4.65;;;;;;;;;;4993995;28;20022;-39
2021/10/13 00:34:11;;;;;;;4.40;3.75;;;;;;;;;;4990740;28;20038;-43
2021/10/13 00:36:37;;;;;;;11.05;4.82;;;;;;;;;;4992550;28;20034;-39
2021/10/13 00:39:02;;;;;;;4.70;4.05;;;;;;;;;;4992032;28;20502;-41
2021/10/13 00:41:28;;;;;;;6.65;4.28;;;;;;;;;;4987275;28;20643;-42
2021/10/13 00:43:53;;;;;;;4.78;3.42;;;;;;;;;;4988445;28;20053;-40
2021/10/13 00:46:18;;;;;;;8.23;4.53;;;;;;;;;;4992188;28;20090;-40
2021/10/13 00:48:44;;;;;;;6.65;4.40;;;;;;;;;;4991581;28;20030;-40
2021/10/13 00:51:09;;;;;;;5.53;5.03;;;;;;;;;;4988140;28;20122;-40
2021/10/13 00:53:34;;;;;;;7.55;4.97;;;;;;;;;;4989432;28;20072;-42
2021/10/13 00:56:00;;;;;;;4.55;4.07;;;;;;;;;;4990819;28;20041;-40
2021/10/13 00:58:25;;;;;;;6.93;6.22;;;;;;;;;;4990784;28;20030;-41
2021/10/13 01:00:55;;;;;;;4.53;4.13;;;;;;;;;;4990994;28;20058;-46
2021/10/13 01:03:20;;;;;;;4.95;4.50;;;;;;;;;;4988372;28;20024;-42
2021/10/13 01:05:45;;;;;;;7.10;5.00;;;;;;;;;;4987016;28;20646;-41
2021/10/13 01:08:11;;;;;;;6.35;4.63;;;;;;;;;;4987983;28;20023;-40
2021/10/13 01:10:49;;;;;;;5.35;3.85;;;;;;;;;;4989874;28;20022;-41
2021/10/13 01:13:29;;;;;;;5.38;4.25;;;;;;;;;;4988209;28;20030;-40
2021/10/13 01:16:13;;;;;;;6.32;3.97;;;;;;;;;;4990632;28;20077;-41
2021/10/13 01:18:38;;;;;;;6.35;4.90;;;;;;;;;;4989318;28;20116;-41
2021/10/13 01:21:38;;;;;;;5.00;4.35;;;;;;;;;;4988764;28;20098;-40
2021/10/13 01:24:17;;;;;;;6.45;4.32;;;;;;;;;;5024164;28;20037;-40
2021/10/13 01:26:50;;;;;;;4.80;3.97;;;;;;;;;;4994783;28;20019;-43
2021/10/13 01:29:18;;;;;;;4.70;3.92;;;;;;;;;;4988200;28;20026;-39
2021/10/13 01:31:54;;;;;;;5.15;4.60;;;;;;;;;;4988348;28;20527;-40
2021/10/13 01:34:25;;;;;;;5.05;4.60;;;;;;;;;;4990256;28;20395;-40
2021/10/13 01:37:01;;;;;;;4.90;3.83;;;;;;;;;;4987764;28;20045;-43
2021/10/13 01:39:28;;;;;;;5.13;4.35;;;;;;;;;;4989024;28;20034;-40
2021/10/13 01:41:54;;;;;;;6.65;5.55;;;;;;;;;;4991763;28;20026;-42
2021/10/13 01:44:20;;;;;;;5.28;4.78;;;;;;;;;;4990852;28;20056;-43
2021/10/13 01:46:46;;;;;;;5.50;3.47;;;;;;;;;;4988894;28;20042;-44
2021/10/13 01:49:12;;;;;;;4.13;3.13;;;;;;;;;;4990318;28;20034;-43
2021/10/13 01:51:38;;;;;;;5.45;4.88;;;;;;;;;;4990454;28;20033;-40
2021/10/13 01:54:04;;;;;;;5.22;4.72;;;;;;;;;;4993333;28;20018;-41
2021/10/13 01:56:30;;;;;;;8.68;4.78;;;;;;;;;;4991086;28;20014;-39
2021/10/13 01:59:06;;;;;;;5.20;4.68;;;;;;;;;;4985032;28;20027;-42
2021/10/13 02:01:33;;;;;;;6.95;4.70;;;;;;;;;;4989245;28;20076;-39
2021/10/13 02:04:01;;;;;;;9.73;4.68;;;;;;;;;;4988866;28;20112;-41
2021/10/13 02:06:28;;;;;;;3.72;3.40;;;;;;;;;;4990394;28;20332;-40
2021/10/13 02:08:54;;;;;;;4.45;3.72;;;;;;;;;;4989693;28;20047;-45
2021/10/13 02:11:22;;;;;;;9.63;5.60;;;;;;;;;;4987667;28;20034;-42
2021/10/13 02:13:48;;;;;;;6.22;4.88;;;;;;;;;;4988639;28;20507;-41
2021/10/13 02:16:13;;;;;;;5.80;5.20;;;;;;;;;;4990365;28;20033;-40
2021/10/13 02:18:40;;;;;;;8.75;4.90;;;;;;;;;;4994184;28;20029;-42
2021/10/13 02:21:05;;;;;;;6.65;4.55;;;;;;;;;;4991903;28;20041;-40
2021/10/13 02:23:35;;;;;;;5.22;4.72;;;;;;;;;;4986197;28;20360;-40
2021/10/13 02:26:07;;;;;;;4.88;4.45;;;;;;;;;;4989258;28;20678;-40
2021/10/13 02:28:43;;;;;;;8.65;5.35;;;;;;;;;;4992000;28;20018;-44
2021/10/13 02:31:09;;;;;;;4.97;3.63;;;;;;;;;;4993777;28;20151;-42
2021/10/13 02:33:35;;;;;;;5.80;5.30;;;;;;;;;;4992345;28;20505;-45
2021/10/13 02:36:00;;;;;;;6.45;5.38;;;;;;;;;;4994766;28;20019;-42
2021/10/13 02:38:25;;;;;;;5.50;5.00;;;;;;;;;;4991604;28;20060;-39
2021/10/13 02:40:50;;;;;;;5.93;4.95;;;;;;;;;;4990714;28;20483;-41
2021/10/13 02:43:16;;;;;;;7.43;5.72;;;;;;;;;;4995107;28;20022;-43
2021/10/13 02:45:43;;;;;;;5.65;5.05;;;;;;;;;;4992107;28;20030;-40
2021/10/13 02:48:12;;;;;;;5.47;4.45;;;;;;;;;;4991220;28;20049;-40
2021/10/13 02:50:37;;;;;;;7.38;4.70;;;;;;;;;;4994828;28;20106;-42
2021/10/13 02:53:03;;;;;;;6.55;4.65;;;;;;;;;;4991925;28;20542;-40
2021/10/13 02:55:36;;;;;;;5.07;4.60;;;;;;;;;;4995655;28;20086;-43
2021/10/13 02:58:04;;;;;;;8.35;4.78;;;;;;;;;;4990044;28;20042;-40
2021/10/13 03:00:31;;;;;;;5.45;4.53;;;;;;;;;;4989785;28;20023;-40
2021/10/13 03:03:05;;;;;;;5.47;4.50;;;;;;;;;;4995031;28;20098;-42
2021/10/13 03:05:31;;;;;;;7.43;5.65;;;;;;;;;;4992974;28;20169;-40
2021/10/13 03:08:00;;;;;;;4.88;4.40;;;;;;;;;;4991958;28;20038;-41
2021/10/13 03:10:27;;;;;;;5.20;4.47;;;;;;;;;;4991300;28;20030;-41
2021/10/13 03:12:53;;;;;;;4.47;4.07;;;;;;;;;;4995792;28;20109;-41
2021/10/13 03:15:19;;;;;;;5.78;4.70;;;;;;;;;;4991500;28;20066;-40
2021/10/13 03:17:46;;;;;;;6.10;5.55;;;;;;;;;;4996882;28;20167;-42
2021/10/13 03:20:12;;;;;;;6.13;5.22;;;;;;;;;;4990009;28;20025;-40
2021/10/13 03:22:38;;;;;;;8.02;5.70;;;;;;;;;;4994365;28;20095;-41
2021/10/13 03:25:04;;;;;;;6.13;4.97;;;;;;;;;;4992697;28;20060;-40
2021/10/13 03:27:29;;;;;;;5.90;4.07;;;;;;;;;;4992448;28;20098;-40
2021/10/13 03:29:54;;;;;;;5.20;4.70;;;;;;;;;;4995213;28;20019;-40
2021/10/13 03:32:20;;;;;;;5.10;4.60;;;;;;;;;;4990049;28;20032;-41
2021/10/13 03:34:45;;;;;;;6.38;4.68;;;;;;;;;;4990959;28;20034;-40
2021/10/13 03:37:13;;;;;;;6.38;4.75;;;;;;;;;;4992155;28;20023;-44
2021/10/13 03:39:38;;;;;;;5.97;4.88;;;;;;;;;;4992361;28;20093;-41
2021/10/13 03:42:03;;;;;;;6.13;5.07;;;;;;;;;;4993773;28;20178;-41
2021/10/13 03:44:29;;;;;;;5.82;5.28;;;;;;;;;;4989225;28;20505;-42
2021/10/13 03:46:54;;;;;;;6.18;5.40;;;;;;;;;;4993151;28;20026;-43
2021/10/13 03:49:19;;;;;;;11.70;5.57;;;;;;;;;;4993421;28;20036;-41
2021/10/13 03:51:45;;;;;;;7.57;5.00;;;;;;;;;;4993525;28;20026;-41
2021/10/13 03:54:10;;;;;;;5.60;4.78;;;;;;;;;;4988223;28;20078;-45
2021/10/13 03:56:35;;;;;;;6.57;3.97;;;;;;;;;;4991518;28;20531;-41
2021/10/13 03:59:01;;;;;;;4.00;3.50;;;;;;;;;;4990129;28;20017;-39
2021/10/13 04:01:26;;;;;;;4.97;3.85;;;;;;;;;;4990573;28;20050;-42
2021/10/13 04:03:51;;;;;;;4.85;4.28;;;;;;;;;;4993601;28;20054;-41
2021/10/13 04:06:17;;;;;;;4.88;4.03;;;;;;;;;;4990157;28;20044;-44
2021/10/13 04:08:42;;;;;;;5.35;4.05;;;;;;;;;;4991895;28;20107;-41
2021/10/13 04:11:07;;;;;;;3.47;3.10;;;;;;;;;;4991717;28;20022;-40
2021/10/13 04:13:33;;;;;;;10.32;3.33;;;;;;;;;;4994831;28;20459;-41
2021/10/13 04:15:58;;;;;;;16.00;5.32;;;;;;;;;;4986513;28;20030;-40
2021/10/13 04:18:24;;;;;;;4.43;3.97;;;;;;;;;;4993547;28;20071;-41
2021/10/13 04:20:49;;;;;;;5.38;3.90;;;;;;;;;;4991089;28;20107;-42
2021/10/13 04:23:14;;;;;;;4.68;3.38;;;;;;;;;;4989062;28;20101;-43
2021/10/13 04:25:39;;;;;;;5.03;4.03;;;;;;;;;;4990736;28;20030;-44
2021/10/13 04:28:05;;;;;;;7.10;5.25;;;;;;;;;;4987965;28;20247;-42
2021/10/13 04:30:30;;;;;;;7.00;4.68;;;;;;;;;;4990193;28;20029;-45
2021/10/13 04:32:56;;;;;;;7.95;5.20;;;;;;;;;;4991297;28;20030;-44
2021/10/13 04:35:21;;;;;;;5.95;5.35;;;;;;;;;;4992122;28;20014;-48
2021/10/13 04:37:46;;;;;;;7.35;6.63;;;;;;;;;;4995747;28;20015;-42
2021/10/13 04:40:12;;;;;;;7.80;5.28;;;;;;;;;;4992976;28;20459;-42
2021/10/13 04:42:37;;;;;;;6.25;4.50;;;;;;;;;;4987900;28;20048;-43
2021/10/13 04:45:04;;;;;;;5.10;4.35;;;;;;;;;;4990470;28;20567;-45
2021/10/13 04:47:29;;;;;;;3.92;3.53;;;;;;;;;;4990658;28;20513;-40
2021/10/13 04:49:54;;;;;;;4.90;4.20;;;;;;;;;;4993807;28;20027;-43
2021/10/13 04:52:20;;;;;;;4.75;3.92;;;;;;;;;;4993446;28;20026;-43
2021/10/13 04:54:45;;;;;;;10.23;4.00;;;;;;;;;;4994695;28;20071;-45
2021/10/13 04:57:10;;;;;;;5.20;3.80;;;;;;;;;;4991591;28;20471;-40
2021/10/13 04:59:36;;;;;;;5.95;4.88;;;;;;;;;;4990689;28;20360;-42
2021/10/13 05:02:01;;;;;;;4.30;3.90;;;;;;;;;;4987536;28;20123;-42
2021/10/13 05:04:26;;;;;;;6.93;4.88;;;;;;;;;;4989525;28;20033;-43
2021/10/13 05:06:52;;;;;;;4.45;3.80;;;;;;;;;;4982795;28;20028;-40
2021/10/13 05:09:17;;;;;;;5.13;3.58;;;;;;;;;;4992988;28;20025;-41
2021/10/13 05:11:43;;;;;;;5.25;3.80;;;;;;;;;;4988749;28;20091;-43
2021/10/13 05:14:08;;;;;;;4.57;3.80;;;;;;;;;;4989634;28;20064;-42
2021/10/13 05:16:33;;;;;;;2.88;2.58;;;;;;;;;;4989039;28;20010;-40
2021/10/13 05:18:59;;;;;;;8.07;3.85;;;;;;;;;;4989807;28;20489;-40
2021/10/13 05:21:24;;;;;;;4.88;3.05;;;;;;;;;;4987435;28;20079;-41
2021/10/13 05:23:49;;;;;;;4.68;4.00;;;;;;;;;;4991214;28;20022;-45
2021/10/13 05:26:15;;;;;;;6.32;3.97;;;;;;;;;;4992937;28;20101;-41
2021/10/13 05:28:40;;;;;;;5.07;4.10;;;;;;;;;;4990116;28;20410;-42
2021/10/13 05:31:05;;;;;;;4.43;3.25;;;;;;;;;;4989943;28;20030;-42
2021/10/13 05:33:30;;;;;;;7.43;4.93;;;;;;;;;;4988512;28;20019;-40
2021/10/13 05:35:56;;;;;;;6.68;5.00;;;;;;;;;;4990763;28;20023;-41
2021/10/13 05:38:21;;;;;;;16.15;4.85;;;;;;;;;;4988078;28;20026;-46
2021/10/13 05:40:46;;;;;;;9.48;4.47;;;;;;;;;;4988063;28;20524;-42
2021/10/13 05:43:12;;;;;;;5.32;4.80;;;;;;;;;;4993597;28;20113;-44
2021/10/13 05:45:37;;;;;;;6.80;3.25;;;;;;;;;;4990879;28;20046;-43
2021/10/13 05:48:02;;;;;;;7.65;5.18;;;;;;;;;;4993082;28;20080;-45
2021/10/13 05:50:28;;;;;;;5.70;4.93;;;;;;;;;;4985946;28;20038;-39
2021/10/13 05:52:53;;;;;;;35.35;26.23;;;;;;;;;;4989397;28;20592;-43
2021/10/13 05:55:18;;;;;;;25.92;19.23;;;;;;;;;;4992760;28;20540;-40
2021/10/13 05:57:44;;;;;;;29.98;17.00;;;;;;;;;;4993925;28;20026;-40
2021/10/13 06:00:09;;;;;;;15.55;12.73;;;;;;;;;;4989486;28;20019;-42
2021/10/13 06:02:35;;;;;;;14.77;10.95;;;;;;;;;;4986219;28;20077;-40
2021/10/13 06:05:01;;;;;;;24.23;10.00;;;;;;;;;;4985437;28;20511;-45
2021/10/13 06:07:26;;;;;;;11.45;8.07;;;;;;;;;;4988703;28;20030;-42
2021/10/13 06:09:52;;;;;;;9.57;6.65;;;;;;;;;;4990746;28;20022;-41
2021/10/13 06:12:17;;;;;;;19.83;6.78;;;;;;;;;;4987022;28;20038;-45
2021/10/13 06:14:42;;;;;;;11.15;7.13;;;;;;;;;;4986098;28;20027;-43
2021/10/13 06:17:07;;;;;;;7.28;4.85;;;;;;;;;;4987403;28;20015;-44
2021/10/13 06:19:33;;;;;;;12.63;6.40;;;;;;;;;;4987359;28;20156;-46
2021/10/13 06:21:58;;;;;;;9.43;5.55;;;;;;;;;;4990364;28;20038;-42
2021/10/13 06:24:23;;;;;;;6.47;4.03;;;;;;;;;;4989297;28;20030;-42
2021/10/13 06:26:49;;;;;;;13.73;7.32;;;;;;;;;;4987574;28;20039;-42
2021/10/13 06:29:14;;;;;;;7.47;4.78;;;;;;;;;;4990979;28;20672;-43
2021/10/13 06:31:39;;;;;;;4.55;4.13;;;;;;;;;;4988185;28;20034;-41
2021/10/13 06:34:05;;;;;;;5.85;3.58;;;;;;;;;;4988061;28;20100;-50
2021/10/13 06:36:30;;;;;;;8.73;6.18;;;;;;;;;;4983262;28;20032;-46
2021/10/13 06:38:56;;;;;;;9.15;5.95;;;;;;;;;;4984889;28;20023;-46
2021/10/13 06:41:21;;;;;;;6.45;5.75;;;;;;;;;;4987945;28;20479;-50
2021/10/13 06:43:46;;;;;;;16.35;7.10;;;;;;;;;;4986019;28;20057;-50
2021/10/13 06:46:12;;;;;;;17.70;9.15;;;;;;;;;;4988384;28;20102;-49
2021/10/13 06:48:37;;;;;;;9.32;7.57;;;;;;;;;;4985741;28;20544;-49
2021/10/13 06:51:02;;;;;;;21.77;8.13;;;;;;;;;;4987754;28;20618;-50
2021/10/13 06:53:28;;;;;;;12.02;8.77;;;;;;;;;;4986457;28;20386;-48
2021/10/13 06:55:55;;;;;;;11.98;7.47;;;;;;;;;;4985458;28;20490;-52
2021/10/13 06:58:20;;;;;;;23.63;12.93;;;;;;;;;;4984068;28;20138;-41
2021/10/13 07:00:45;;;;;;;25.48;7.25;;;;;;;;;;4988303;28;20030;-51
2021/10/13 07:03:11;;;;;;;11.10;7.82;;;;;;;;;;4991293;28;20106;-47
2021/10/13 07:05:36;;;;;;;6.28;4.60;;;;;;;;;;4984205;28;20163;-51
2021/10/13 07:08:02;;;;;;;27.63;6.15;;;;;;;;;;4982941;28;20480;-48
2021/10/13 07:10:27;;;;;;;14.82;7.80;;;;;;;;;;4986347;28;20026;-51
2021/10/13 07:12:52;;;;;;;13.30;7.82;;;;;;;;;;4987864;28;20432;-47
2021/10/13 07:15:18;;;;;;;11.13;8.00;;;;;;;;;;4992283;28;20375;-47
2021/10/13 07:17:44;;;;;;;31.88;8.13;;;;;;;;;;4996905;28;20022;-46
2021/10/13 07:20:09;;;;;;;20.58;10.10;;;;;;;;;;4990010;28;20026;-49
2021/10/13 07:22:35;;;;;;;15.55;8.27;;;;;;;;;;4993952;28;20022;-50
2021/10/13 07:25:00;;;;;;;12.55;8.40;;;;;;;;;;4989221;28;20026;-49
2021/10/13 07:27:27;;;;;;;10.18;7.35;;;;;;;;;;4989574;28;20105;-45
2021/10/13 07:29:59;;;;;;;6.80;6.20;;;;;;;;;;4988461;28;20026;-51
2021/10/13 07:32:25;;;;;;;14.23;7.82;;;;;;;;;;4986122;28;20051;-48
2021/10/13 07:34:51;;;;;;;12.23;7.05;;;;;;;;;;4985081;28;20195;-52
2021/10/13 07:37:17;;;;;;;18.02;9.73;;;;;;;;;;4991058;28;20030;-51
2021/10/13 07:39:42;;;;;;;12.27;11.02;;;;;;;;;;4991074;28;20594;-47
2021/10/13 07:42:08;;;;;;;19.85;11.77;;;;;;;;;;4992693;28;20117;-48
2021/10/13 07:44:33;;;;;;;21.50;12.07;;;;;;;;;;4985473;28;20054;-49
2021/10/13 07:46:58;;;;;;;21.13;11.70;;;;;;;;;;4981851;28;20030;-48
2021/10/13 07:49:24;;;;;;;17.08;11.63;;;;;;;;;;4989165;28;20022;-49
2021/10/13 07:51:49;;;;;;;18.95;11.20;;;;;;;;;;4990794;28;20018;-45
2021/10/13 07:54:15;;;;;;;9.52;6.82;;;;;;;;;;4987523;28;20369;-46
2021/10/13 07:56:40;;;;;;;8.07;7.13;;;;;;;;;;4990185;28;20011;-52
2021/10/13 07:59:05;;;;;;;8.63;5.97;;;;;;;;;;4993358;28;20033;-51
2021/10/13 08:01:31;;;;;;;6.80;5.05;;;;;;;;;;4994514;28;20049;-52
2021/10/13 08:03:56;;;;;;;5.97;4.78;;;;;;;;;;4999203;28;20552;-49
2021/10/13 08:06:22;;;;;;;5.47;3.53;;;;;;;;;;4984198;28;20068;-50
2021/10/13 08:08:47;;;;;;;3.38;2.92;;;;;;;;;;4990826;28;20022;-47
2021/10/13 08:11:12;;;;;;;6.47;3.35;;;;;;;;;;4994960;28;20018;-47
2021/10/13 08:13:38;;;;;;;7.28;3.35;;;;;;;;;;4989064;28;20545;-47
2021/10/13 08:16:03;;;;;;;12.80;3.40;;;;;;;;;;4992201;28;20014;-49
2021/10/13 08:18:29;;;;;;;7.88;6.30;;;;;;;;;;4991277;28;20054;-51
2021/10/13 08:20:55;;;;;;;9.85;2.88;;;;;;;;;;4988651;28;20466;-51
2021/10/13 08:23:21;;;;;;;7.50;3.35;;;;;;;;;;4991846;28;20022;-47
2021/10/13 08:25:47;;;;;;;7.78;2.92;;;;;;;;;;4993339;28;20031;-52
2021/10/13 08:28:13;;;;;;;6.38;4.20;;;;;;;;;;4985664;28;20018;-47
2021/10/13 08:30:38;;;;;;;8.52;3.28;;;;;;;;;;4984726;28;20030;-48
2021/10/13 08:33:03;;;;;;;4.57;2.17;;;;;;;;;;4992349;28;20031;-47
2021/10/13 08:35:29;;;;;;;6.82;2.58;;;;;;;;;;4990301;28;20022;-48
2021/10/13 08:37:54;;;;;;;20.17;4.15;;;;;;;;;;4988020;28;20035;-48
2021/10/13 08:40:19;;;;;;;7.28;3.25;;;;;;;;;;4981399;28;20023;-49
2021/10/13 08:42:55;;;;;;;10.38;4.07;;;;;;;;;;4992169;28;20029;-46
2021/10/13 08:45:21;;;;;;;2.63;1.95;;;;;;;;;;4989337;28;20102;-50
2021/10/13 08:47:47;;;;;;;2.83;2.08;;;;;;;;;;4985134;28;21045;-45
2021/10/13 08:50:12;;;;;;;4.90;1.80;;;;;;;;;;4988651;28;20031;-46
2021/10/13 08:52:37;;;;;;;10.50;4.20;;;;;;;;;;4990716;28;20031;-47
2021/10/13 08:55:03;;;;;;;8.20;3.25;;;;;;;;;;4985431;28;20528;-51
2021/10/13 08:57:30;;;;;;;9.07;3.60;;;;;;;;;;4983382;28;20487;-48
2021/10/13 08:59:55;;;;;;;9.10;3.40;;;;;;;;;;4986949;28;20030;-49
2021/10/13 09:02:40;;;;;;;12.50;7.13;;;;;;;;;;4987432;28;20083;-49
2021/10/13 09:05:07;;;;;;;14.02;5.07;;;;;;;;;;4989289;28;20050;-49
2021/10/13 09:07:33;;;;;;;9.98;6.32;;;;;;;;;;4986439;28;20099;-47
2021/10/13 09:09:58;;;;;;;7.90;5.88;;;;;;;;;;4985080;28;20034;-51
2021/10/13 09:12:33;;;;;;;5.47;3.92;;;;;;;;;;4990424;28;20031;-50
2021/10/13 09:15:02;;;;;;;8.07;4.00;;;;;;;;;;4987203;28;20121;-47
2021/10/13 09:17:28;;;;;;;9.02;4.38;;;;;;;;;;4990423;28;20029;-48
2021/10/13 09:19:53;;;;;;;2.90;2.10;;;;;;;;;;4988985;28;20014;-47
2021/10/13 09:22:19;;;;;;;8.95;3.33;;;;;;;;;;4986358;28;20033;-46
2021/10/13 09:24:44;;;;;;;4.22;3.35;;;;;;;;;;4980871;28;20027;-49
2021/10/13 09:27:36;;;;;;;3.50;2.70;;;;;;;;;;4986958;28;20038;-46
2021/10/13 09:30:03;;;;;;;17.33;3.13;;;;;;;;;;4988045;28;20570;-49
2021/10/13 09:32:29;;;;;;;4.68;2.65;;;;;;;;;;4988572;28;20150;-45
2021/10/13 09:34:55;;;;;;;6.20;4.13;;;;;;;;;;4995208;28;20198;-43
2021/10/13 09:37:24;;;;;;;3.65;2.25;;;;;;;;;;4980631;28;20026;-44
2021/10/13 09:39:57;;;;;;;13.80;3.05;;;;;;;;;;4989236;28;20451;-45
2021/10/13 09:42:23;;;;;;;9.68;4.35;;;;;;;;;;4984102;28;20026;-49
2021/10/13 09:44:58;;;;;;;10.68;4.13;;;;;;;;;;4993256;28;20064;-47
2021/10/13 09:47:30;;;;;;;6.22;3.17;;;;;;;;;;4984327;28;20038;-49
2021/10/13 09:49:56;;;;;;;4.05;3.28;;;;;;;;;;4987214;28;20534;-48
2021/10/13 09:52:27;;;;;;;3.28;2.83;;;;;;;;;;4984504;28;20025;-48
2021/10/13 09:55:09;;;;;;;5.65;2.72;;;;;;;;;;4989810;28;20387;-50
2021/10/13 09:57:42;;;;;;;7.00;3.83;;;;;;;;;;4989346;28;20099;-51
2021/10/13 10:00:11;;;;;;;10.63;2.80;;;;;;;;;;4987143;28;20073;-44
2021/10/13 10:02:41;;;;;;;10.82;3.15;;;;;;;;;;4984576;28;20030;-47
2021/10/13 10:05:08;;;;;;;12.65;4.78;;;;;;;;;;4987008;28;20057;-45
2021/10/13 10:07:33;;;;;;;3.67;2.78;;;;;;;;;;4982763;28;20751;-51
2021/10/13 10:10:06;;;;;;;8.50;3.28;;;;;;;;;;4990104;28;20030;-47
2021/10/13 10:12:51;;;;;;;9.93;4.20;;;;;;;;;;4993952;28;20649;-46
2021/10/13 10:15:25;;;;;;;11.13;3.92;;;;;;;;;;4991707;28;20045;-47
2021/10/13 10:17:51;;;;;;;3.70;3.15;;;;;;;;;;4983068;28;20034;-51
2021/10/13 10:20:31;;;;;;;7.68;4.30;;;;;;;;;;4981550;28;20030;-47
2021/10/13 10:22:56;;;;;;;5.40;4.43;;;;;;;;;;4981558;28;20037;-47
2021/10/13 10:25:33;;;;;;;8.32;2.90;;;;;;;;;;4986676;28;20424;-48
2021/10/13 10:27:58;;;;;;;6.32;4.32;;;;;;;;;;4980677;28;20032;-47
2021/10/13 10:30:25;;;;;;;5.90;3.72;;;;;;;;;;4980885;28;20034;-47
2021/10/13 10:32:53;;;;;;;7.03;4.43;;;;;;;;;;4985675;28;20361;-45
2021/10/13 10:35:18;;;;;;;12.85;4.43;;;;;;;;;;4985798;28;20022;-47
2021/10/13 10:37:51;;;;;;;5.90;2.83;;;;;;;;;;4986691;28;20022;-47
2021/10/13 10:40:20;;;;;;;8.40;5.70;;;;;;;;;;4982501;28;20030;-51
2021/10/13 10:42:46;;;;;;;6.00;3.33;;;;;;;;;;4985816;28;20022;-49
2021/10/13 10:45:12;;;;;;;3.00;1.65;;;;;;;;;;4982222;28;20058;-46
2021/10/13 10:47:48;;;;;;;9.35;3.45;;;;;;;;;;4983276;28;20034;-46
2021/10/13 10:50:14;;;;;;;8.82;3.08;;;;;;;;;;4986701;28;20026;-47
2021/10/13 10:52:59;;;;;;;5.88;2.65;;;;;;;;;;4982319;28;20052;-48
2021/10/13 10:55:33;;;;;;;13.73;4.35;;;;;;;;;;4987303;28;20328;-48
2021/10/13 10:58:11;;;;;;;8.18;3.90;;;;;;;;;;4985578;28;20080;-46
2021/10/13 11:00:38;;;;;;;5.00;2.15;;;;;;;;;;4991755;28;20049;-45
2021/10/13 11:03:15;;;;;;;5.30;3.03;;;;;;;;;;4991355;28;20033;-49
2021/10/13 11:05:41;;;;;;;5.22;3.05;;;;;;;;;;4988906;28;20079;-48
2021/10/13 11:08:08;;;;;;;9.43;4.93;;;;;;;;;;4991417;28;20034;-47
2021/10/13 11:10:34;;;;;;;4.80;3.25;;;;;;;;;;4985069;28;20033;-49
2021/10/13 11:12:59;;;;;;;5.90;2.08;;;;;;;;;;4988570;28;20396;-50
2021/10/13 11:15:26;;;;;;;4.32;3.28;;;;;;;;;;4991123;28;20469;-45
2021/10/13 11:17:51;;;;;;;10.55;3.63;;;;;;;;;;4990044;28;20728;-48
2021/10/13 11:20:21;;;;;;;17.23;3.83;;;;;;;;;;4982302;28;20023;-48
2021/10/13 11:22:56;;;;;;;6.78;3.30;;;;;;;;;;4984105;28;20022;-50
2021/10/13 11:25:23;;;;;;;14.35;4.70;;;;;;;;;;4987789;28;20534;-47
2021/10/13 11:28:00;;;;;;;10.80;4.97;;;;;;;;;;4985603;28;20042;-49
2021/10/13 11:30:26;;;;;;;11.15;5.10;;;;;;;;;;4987495;28;20026;-43
2021/10/13 11:32:51;;;;;;;7.55;5.05;;;;;;;;;;4988441;28;20153;-45
2021/10/13 11:35:19;;;;;;;14.20;5.13;;;;;;;;;;4993201;28;20133;-50
2021/10/13 11:37:49;;;;;;;11.68;5.13;;;;;;;;;;4985378;28;20098;-46
2021/10/13 11:40:16;;;;;;;15.07;4.53;;;;;;;;;;4987714;28;20029;-45
2021/10/13 11:42:41;;;;;;;21.48;4.90;;;;;;;;;;4988403;28;20121;-48
2021/10/13 11:45:12;;;;;;;15.45;3.55;;;;;;;;;;4985239;28;20058;-45
2021/10/13 11:47:37;;;;;;;16.75;3.58;;;;;;;;;;4988072;28;20038;-49
2021/10/13 11:50:06;;;;;;;20.20;3.60;;;;;;;;;;4987043;28;20539;-48
2021/10/13 11:52:31;;;;;;;8.05;2.97;;;;;;;;;;4989157;28;20575;-49
2021/10/13 11:54:57;;;;;;;6.03;2.80;;;;;;;;;;4985852;28;20087;-44
2021/10/13 11:57:22;;;;;;;16.15;4.13;;;;;;;;;;4988464;28;20770;-46
2021/10/13 12:00:06;;;;;;;13.35;3.15;;;;;;;;;;4989752;28;20030;-45
2021/10/13 12:02:32;;;;;;;8.30;4.03;;;;;;;;;;4990756;28;20088;-46
2021/10/13 12:05:02;;;;;;;8.88;4.43;;;;;;;;;;4988071;28;20065;-47
2021/10/13 12:07:27;;;;;;;12.40;4.13;;;;;;;;;;4988980;28;20018;-50
2021/10/13 12:10:00;;;;;;;8.05;4.13;;;;;;;;;;4987008;28;20502;-45
2021/10/13 12:12:26;;;;;;;11.48;5.35;;;;;;;;;;4996268;28;20134;-48
2021/10/13 12:14:51;;;;;;;9.25;3.97;;;;;;;;;;4989490;28;20320;-52
2021/10/13 12:17:24;;;;;;;9.13;3.08;;;;;;;;;;4991172;28;20034;-45
2021/10/13 12:19:50;;;;;;;10.05;3.92;;;;;;;;;;4986033;28;20022;-47
2021/10/13 12:22:15;;;;;;;7.38;3.30;;;;;;;;;;4993347;28;20030;-50
2021/10/13 12:24:40;;;;;;;9.45;4.13;;;;;;;;;;4989986;28;20462;-46
2021/10/13 12:27:08;;;;;;;8.20;3.67;;;;;;;;;;4989415;28;20494;-45
2021/10/13 12:29:42;;;;;;;10.40;3.17;;;;;;;;;;4987455;28;20105;-51
2021/10/13 12:32:18;;;;;;;4.32;3.78;;;;;;;;;;4993427;28;20094;-51
2021/10/13 12:34:44;;;;;;;9.52;4.07;;;;;;;;;;4989122;28;20033;-52
2021/10/13 12:37:09;;;;;;;10.80;4.55;;;;;;;;;;4993351;28;20017;-49
2021/10/13 12:39:34;;;;;;;4.95;2.63;;;;;;;;;;4988539;28;20507;-49
2021/10/13 12:42:10;;;;;;;4.90;3.28;;;;;;;;;;4992640;28;20037;-51
2021/10/13 12:44:36;;;;;;;11.02;4.47;;;;;;;;;;4994703;28;20041;-57
2021/10/13 12:47:05;;;;;;;12.65;3.95;;;;;;;;;;4988012;28;20025;-55
2021/10/13 12:49:34;;;;;;;9.93;4.53;;;;;;;;;;4991569;28;20129;-52
2021/10/13 12:52:03;;;;;;;7.28;2.78;;;;;;;;;;4990869;28;20033;-46
2021/10/13 12:54:33;;;;;;;11.93;3.42;;;;;;;;;;4990370;28;20022;-45
2021/10/13 12:56:59;;;;;;;7.13;2.63;;;;;;;;;;4989528;28;20031;-50
2021/10/13 12:59:24;;;;;;;9.88;3.53;;;;;;;;;;4988721;28;20040;-48
2021/10/13 13:01:50;;;;;;;11.40;3.28;;;;;;;;;;4987547;28;20033;-47
2021/10/13 13:04:16;;;;;;;10.55;4.38;;;;;;;;;;4987431;28;20022;-48
2021/10/13 13:06:41;;;;;;;7.47;3.95;;;;;;;;;;4991078;28;20042;-50
2021/10/13 13:09:08;;;;;;;2.83;1.85;;;;;;;;;;4994096;28;20755;-50
2021/10/13 13:11:33;;;;;;;10.23;2.97;;;;;;;;;;4990688;28;20018;-48
2021/10/13 13:13:59;;;;;;;7.07;3.05;;;;;;;;;;4987182;28;20031;-50
2021/10/13 13:16:26;;;;;;;6.35;2.67;;;;;;;;;;4988624;28;20407;-52
2021/10/13 13:18:51;;;;;;;4.47;2.90;;;;;;;;;;4988559;28;20032;-53
2021/10/13 13:21:17;;;;;;;10.10;3.38;;;;;;;;;;4991308;28;20026;-51
2021/10/13 13:23:42;;;;;;;7.53;3.17;;;;;;;;;;4986579;28;20025;-52
2021/10/13 13:26:07;;;;;;;7.55;2.90;;;;;;;;;;4990861;28;20526;-50
2021/10/13 13:28:33;;;;;;;7.45;3.95;;;;;;;;;;4990131;28;20050;-49
2021/10/13 13:30:58;;;;;;;5.95;3.20;;;;;;;;;;4992737;28;20068;-54
2021/10/13 13:33:26;;;;;;;6.82;3.35;;;;;;;;;;4987580;28;20065;-50
2021/10/13 13:35:52;;;;;;;6.45;2.20;;;;;;;;;;4984599;28;20030;-52
2021/10/13 13:38:17;;;;;;;22.02;3.25;;;;;;;;;;4991094;28;20042;-53
2021/10/13 13:40:43;;;;;;;10.82;2.22;;;;;;;;;;4983405;28;20083;-48
2021/10/13 13:43:08;;;;;;;8.02;3.90;;;;;;;;;;4988623;28;20053;-50
2021/10/13 13:45:34;;;;;;;10.52;2.42;;;;;;;;;;4996789;28;20046;-50
2021/10/13 13:48:00;;;;;;;4.40;2.45;;;;;;;;;;4985885;28;20022;-50
2021/10/13 13:50:26;;;;;;;6.18;2.50;;;;;;;;;;4991504;28;20033;-50
2021/10/13 13:52:53;;;;;;;8.93;3.33;;;;;;;;;;4987131;28;20030;-49
2021/10/13 13:55:18;;;;;;;4.85;2.05;;;;;;;;;;4988027;28;20031;-49
2021/10/13 13:57:43;;;;;;;4.72;2.42;;;;;;;;;;4994444;28;20018;-47
2021/10/13 14:00:09;;;;;;;9.18;3.92;;;;;;;;;;4985645;28;20109;-53
2021/10/13 14:02:34;;;;;;;8.27;2.50;;;;;;;;;;4986760;28;20062;-52
2021/10/13 14:04:59;;;;;;;14.52;3.13;;;;;;;;;;4987859;28;20030;-51
2021/10/13 14:07:25;;;;;;;7.88;2.10;;;;;;;;;;4993425;28;20026;-55
2021/10/13 14:09:50;;;;;;;11.02;1.58;;;;;;;;;;4993981;28;20095;-50
2021/10/13 14:12:15;;;;;;;5.07;2.65;;;;;;;;;;4991501;28;20027;-50
2021/10/13 14:14:41;;;;;;;15.65;3.25;;;;;;;;;;4989036;28;20026;-52
2021/10/13 14:17:06;;;;;;;10.85;3.63;;;;;;;;;;4989568;28;20105;-51
2021/10/13 14:19:32;;;;;;;14.50;2.80;;;;;;;;;;4991254;28;20061;-47
2021/10/13 14:21:57;;;;;;;4.95;2.58;;;;;;;;;;4984977;28;20596;-45
2021/10/13 14:24:22;;;;;;;5.22;1.73;;;;;;;;;;4988626;28;20453;-47
2021/10/13 14:26:48;;;;;;;2.20;1.23;;;;;;;;;;4993688;28;20475;-50
2021/10/13 14:29:14;;;;;;;5.10;0.93;;;;;;;;;;4988539;28;20504;-50
2021/10/13 14:31:39;;;;;;;6.45;2.90;;;;;;;;;;4995530;28;20041;-50
2021/10/13 14:34:04;;;;;;;9.85;2.75;;;;;;;;;;4986834;28;20030;-47
2021/10/13 14:36:30;;;;;;;3.05;1.92;;;;;;;;;;4993252;28;20069;-53